sensor_id;sensor_type;location;lat;lon;timestamp;P1;durP1;ratioP1;P2;durP2;ratioP2
72335;SDS011;65062;48.446;8.834;2022-12-18T00:01:47;10.57;;;5.93;;
72335;SDS011;65062;48.446;8.834;2022-12-18T00:04:48;8.90;;;4.15;;
72335;SDS011;65062;48.446;8.834;2022-12-18T00:07:48;8.70;;;4.40;;
72335;SDS011;65062;48.446;8.834;2022-12-18T00:10:49;4.13;;;2.53;;
72335;SDS011;65062;48.446;8.834;2022-12-18T00:13:49;6.20;;;2.92;;
72335;SDS011;65062;48.446;8.834;2022-12-18T00:16:50;15.18;;;5.82;;
72335;SDS011;65062;48.446;8.834;2022-12-18T00:19:51;7.32;;;4.70;;
72335;SDS011;65062;48.446;8.834;2022-12-18T00:22:51;6.68;;;3.58;;
72335;SDS011;65062;48.446;8.834;2022-12-18T00:25:52;18.00;;;10.18;;
72335;SDS011;65062;48.446;8.834;2022-12-18T00:28:53;5.18;;;4.63;;
72335;SDS011;65062;48.446;8.834;2022-12-18T00:31:53;12.15;;;5.63;;
72335;SDS011;65062;48.446;8.834;2022-12-18T00:34:54;4.20;;;2.78;;
72335;SDS011;65062;48.446;8.834;2022-12-18T00:37:54;1.85;;;1.77;;
72335;SDS011;65062;48.446;8.834;2022-12-18T00:40:54;6.00;;;4.68;;
72335;SDS011;65062;48.446;8.834;2022-12-18T00:43:55;9.57;;;4.03;;
72335;SDS011;65062;48.446;8.834;2022-12-18T00:46:55;9.38;;;4.57;;
72335;SDS011;65062;48.446;8.834;2022-12-18T00:49:56;12.32;;;4.63;;
72335;SDS011;65062;48.446;8.834;2022-12-18T00:52:56;4.70;;;3.47;;
72335;SDS011;65062;48.446;8.834;2022-12-18T00:55:56;0.93;;;0.90;;
72335;SDS011;65062;48.446;8.834;2022-12-18T00:58:56;11.90;;;5.47;;
72335;SDS011;65062;48.446;8.834;2022-12-18T01:01:57;3.20;;;1.67;;
72335;SDS011;65062;48.446;8.834;2022-12-18T01:04:57;4.15;;;3.28;;
72335;SDS011;65062;48.446;8.834;2022-12-18T01:07:58;7.47;;;3.95;;
72335;SDS011;65062;48.446;8.834;2022-12-18T01:10:58;1.05;;;1.00;;
72335;SDS011;65062;48.446;8.834;2022-12-18T01:13:59;3.88;;;3.38;;
72335;SDS011;65062;48.446;8.834;2022-12-18T01:16:59;4.43;;;3.38;;
72335;SDS011;65062;48.446;8.834;2022-12-18T01:20:02;4.38;;;4.00;;
72335;SDS011;65062;48.446;8.834;2022-12-18T01:23:02;0.73;;;0.73;;
72335;SDS011;65062;48.446;8.834;2022-12-18T01:26:25;5.03;;;3.67;;
72335;SDS011;65062;48.446;8.834;2022-12-18T01:29:24;8.15;;;4.75;;
72335;SDS011;65062;48.446;8.834;2022-12-18T01:32:24;5.90;;;4.18;;
72335;SDS011;65062;48.446;8.834;2022-12-18T01:35:25;5.35;;;3.15;;
72335;SDS011;65062;48.446;8.834;2022-12-18T01:38:25;21.80;;;8.10;;
72335;SDS011;65062;48.446;8.834;2022-12-18T01:41:26;14.02;;;8.73;;
72335;SDS011;65062;48.446;8.834;2022-12-18T01:47:58;9.52;;;5.85;;
72335;SDS011;65062;48.446;8.834;2022-12-18T01:51:01;25.75;;;10.05;;
72335;SDS011;65062;48.446;8.834;2022-12-18T01:54:01;12.60;;;8.77;;
72335;SDS011;65062;48.446;8.834;2022-12-18T01:57:02;14.68;;;7.70;;
72335;SDS011;65062;48.446;8.834;2022-12-18T02:00:05;15.88;;;7.53;;
72335;SDS011;65062;48.446;8.834;2022-12-18T02:03:10;7.53;;;5.78;;
72335;SDS011;65062;48.446;8.834;2022-12-18T02:09:32;5.95;;;5.18;;
72335;SDS011;65062;48.446;8.834;2022-12-18T02:16:06;12.73;;;7.78;;
72335;SDS011;65062;48.446;8.834;2022-12-18T02:29:31;3.92;;;3.42;;
72335;SDS011;65062;48.446;8.834;2022-12-18T02:32:43;12.15;;;6.78;;
72335;SDS011;65062;48.446;8.834;2022-12-18T02:35:49;8.50;;;5.57;;
72335;SDS011;65062;48.446;8.834;2022-12-18T02:41:53;7.30;;;6.25;;
72335;SDS011;65062;48.446;8.834;2022-12-18T02:44:56;15.05;;;7.55;;
72335;SDS011;65062;48.446;8.834;2022-12-18T02:47:56;21.02;;;8.95;;
72335;SDS011;65062;48.446;8.834;2022-12-18T02:54:06;9.43;;;4.60;;
72335;SDS011;65062;48.446;8.834;2022-12-18T02:57:15;13.65;;;7.22;;
72335;SDS011;65062;48.446;8.834;2022-12-18T03:00:28;18.50;;;7.78;;
72335;SDS011;65062;48.446;8.834;2022-12-18T03:06:50;9.68;;;3.88;;
72335;SDS011;65062;48.446;8.834;2022-12-18T03:09:55;10.13;;;5.60;;
72335;SDS011;65062;48.446;8.834;2022-12-18T03:13:04;3.78;;;3.45;;
72335;SDS011;65062;48.446;8.834;2022-12-18T03:16:10;8.90;;;5.18;;
72335;SDS011;65062;48.446;8.834;2022-12-18T03:19:15;12.65;;;6.78;;
72335;SDS011;65062;48.446;8.834;2022-12-18T03:22:18;5.68;;;4.55;;
72335;SDS011;65062;48.446;8.834;2022-12-18T03:25:20;3.35;;;3.10;;
72335;SDS011;65062;48.446;8.834;2022-12-18T03:28:22;12.75;;;6.40;;
72335;SDS011;65062;48.446;8.834;2022-12-18T03:31:23;7.00;;;4.90;;
72335;SDS011;65062;48.446;8.834;2022-12-18T03:34:32;3.72;;;2.42;;
72335;SDS011;65062;48.446;8.834;2022-12-18T03:37:35;5.70;;;4.88;;
72335;SDS011;65062;48.446;8.834;2022-12-18T03:40:43;2.20;;;1.45;;
72335;SDS011;65062;48.446;8.834;2022-12-18T03:56:36;13.63;;;3.15;;
72335;SDS011;65062;48.446;8.834;2022-12-18T03:59:40;8.05;;;6.82;;
72335;SDS011;65062;48.446;8.834;2022-12-18T04:05:46;2.25;;;0.85;;
72335;SDS011;65062;48.446;8.834;2022-12-18T04:08:50;13.80;;;4.63;;
72335;SDS011;65062;48.446;8.834;2022-12-18T04:11:51;4.70;;;3.03;;
72335;SDS011;65062;48.446;8.834;2022-12-18T04:14:52;8.95;;;4.25;;
72335;SDS011;65062;48.446;8.834;2022-12-18T04:17:52;2.20;;;1.90;;
72335;SDS011;65062;48.446;8.834;2022-12-18T04:20:52;11.38;;;5.50;;
72335;SDS011;65062;48.446;8.834;2022-12-18T04:23:53;1.73;;;1.65;;
72335;SDS011;65062;48.446;8.834;2022-12-18T04:26:53;1.48;;;1.38;;
72335;SDS011;65062;48.446;8.834;2022-12-18T04:29:54;2.92;;;2.72;;
72335;SDS011;65062;48.446;8.834;2022-12-18T04:32:54;10.52;;;4.22;;
72335;SDS011;65062;48.446;8.834;2022-12-18T04:35:54;9.82;;;5.63;;
72335;SDS011;65062;48.446;8.834;2022-12-18T04:38:55;3.40;;;2.60;;
72335;SDS011;65062;48.446;8.834;2022-12-18T04:41:55;1.98;;;1.88;;
72335;SDS011;65062;48.446;8.834;2022-12-18T04:44:56;3.47;;;1.45;;
72335;SDS011;65062;48.446;8.834;2022-12-18T04:47:59;7.57;;;4.75;;
72335;SDS011;65062;48.446;8.834;2022-12-18T04:51:02;8.00;;;4.65;;
72335;SDS011;65062;48.446;8.834;2022-12-18T04:54:04;0.60;;;0.60;;
72335;SDS011;65062;48.446;8.834;2022-12-18T04:57:04;1.30;;;1.30;;
72335;SDS011;65062;48.446;8.834;2022-12-18T05:00:05;10.65;;;4.45;;
72335;SDS011;65062;48.446;8.834;2022-12-18T05:03:06;1.77;;;1.67;;
72335;SDS011;65062;48.446;8.834;2022-12-18T05:06:06;2.00;;;1.85;;
72335;SDS011;65062;48.446;8.834;2022-12-18T05:09:07;6.60;;;4.07;;
72335;SDS011;65062;48.446;8.834;2022-12-18T05:12:07;8.40;;;4.57;;
72335;SDS011;65062;48.446;8.834;2022-12-18T05:15:08;5.63;;;4.10;;
72335;SDS011;65062;48.446;8.834;2022-12-18T05:18:08;11.15;;;6.22;;
72335;SDS011;65062;48.446;8.834;2022-12-18T05:21:09;5.50;;;3.42;;
72335;SDS011;65062;48.446;8.834;2022-12-18T05:24:09;4.13;;;3.75;;
72335;SDS011;65062;48.446;8.834;2022-12-18T05:27:09;11.30;;;5.50;;
72335;SDS011;65062;48.446;8.834;2022-12-18T05:30:10;9.93;;;3.53;;
72335;SDS011;65062;48.446;8.834;2022-12-18T05:33:11;4.38;;;3.60;;
72335;SDS011;65062;48.446;8.834;2022-12-18T05:36:11;9.57;;;3.03;;
72335;SDS011;65062;48.446;8.834;2022-12-18T05:39:12;10.60;;;3.58;;
72335;SDS011;65062;48.446;8.834;2022-12-18T05:42:12;2.05;;;1.95;;
72335;SDS011;65062;48.446;8.834;2022-12-18T05:45:12;8.25;;;4.40;;
72335;SDS011;65062;48.446;8.834;2022-12-18T05:48:13;8.40;;;5.35;;
72335;SDS011;65062;48.446;8.834;2022-12-18T05:51:14;11.90;;;6.10;;
72335;SDS011;65062;48.446;8.834;2022-12-18T05:54:16;3.53;;;3.22;;
72335;SDS011;65062;48.446;8.834;2022-12-18T05:57:17;6.72;;;4.90;;
72335;SDS011;65062;48.446;8.834;2022-12-18T06:00:17;9.90;;;6.03;;
72335;SDS011;65062;48.446;8.834;2022-12-18T06:03:18;5.60;;;4.40;;
72335;SDS011;65062;48.446;8.834;2022-12-18T06:06:19;10.90;;;4.97;;
72335;SDS011;65062;48.446;8.834;2022-12-18T06:09:21;11.93;;;4.18;;
72335;SDS011;65062;48.446;8.834;2022-12-18T06:12:21;4.80;;;3.47;;
72335;SDS011;65062;48.446;8.834;2022-12-18T06:15:21;7.47;;;3.15;;
72335;SDS011;65062;48.446;8.834;2022-12-18T06:18:22;13.13;;;4.63;;
72335;SDS011;65062;48.446;8.834;2022-12-18T06:21:22;2.95;;;2.83;;
72335;SDS011;65062;48.446;8.834;2022-12-18T06:24:22;2.38;;;1.88;;
72335;SDS011;65062;48.446;8.834;2022-12-18T06:27:23;4.00;;;1.60;;
72335;SDS011;65062;48.446;8.834;2022-12-18T06:30:23;6.75;;;4.78;;
72335;SDS011;65062;48.446;8.834;2022-12-18T06:33:25;6.75;;;2.55;;
72335;SDS011;65062;48.446;8.834;2022-12-18T06:36:31;2.90;;;2.47;;
72335;SDS011;65062;48.446;8.834;2022-12-18T06:39:31;5.93;;;4.68;;
72335;SDS011;65062;48.446;8.834;2022-12-18T06:42:31;8.35;;;4.65;;
72335;SDS011;65062;48.446;8.834;2022-12-18T06:45:32;2.47;;;2.25;;
72335;SDS011;65062;48.446;8.834;2022-12-18T06:48:32;4.47;;;4.07;;
72335;SDS011;65062;48.446;8.834;2022-12-18T06:51:33;4.38;;;3.58;;
72335;SDS011;65062;48.446;8.834;2022-12-18T06:54:33;11.82;;;5.20;;
72335;SDS011;65062;48.446;8.834;2022-12-18T06:57:33;6.25;;;4.18;;
72335;SDS011;65062;48.446;8.834;2022-12-18T07:00:34;2.00;;;1.75;;
72335;SDS011;65062;48.446;8.834;2022-12-18T07:03:34;7.10;;;5.20;;
72335;SDS011;65062;48.446;8.834;2022-12-18T07:06:35;4.28;;;3.75;;
72335;SDS011;65062;48.446;8.834;2022-12-18T07:09:36;1.38;;;1.27;;
72335;SDS011;65062;48.446;8.834;2022-12-18T07:12:36;3.58;;;2.17;;
72335;SDS011;65062;48.446;8.834;2022-12-18T07:15:36;5.93;;;3.08;;
72335;SDS011;65062;48.446;8.834;2022-12-18T07:18:37;2.78;;;2.58;;
72335;SDS011;65062;48.446;8.834;2022-12-18T07:21:37;0.55;;;0.55;;
72335;SDS011;65062;48.446;8.834;2022-12-18T07:24:38;1.50;;;1.40;;
72335;SDS011;65062;48.446;8.834;2022-12-18T07:27:38;3.30;;;3.00;;
72335;SDS011;65062;48.446;8.834;2022-12-18T07:30:38;1.42;;;1.33;;
72335;SDS011;65062;48.446;8.834;2022-12-18T07:33:39;2.90;;;2.65;;
72335;SDS011;65062;48.446;8.834;2022-12-18T07:36:39;6.43;;;3.63;;
72335;SDS011;65062;48.446;8.834;2022-12-18T07:39:40;5.68;;;2.33;;
72335;SDS011;65062;48.446;8.834;2022-12-18T07:42:40;7.20;;;3.65;;
72335;SDS011;65062;48.446;8.834;2022-12-18T07:45:41;2.60;;;2.22;;
72335;SDS011;65062;48.446;8.834;2022-12-18T07:48:42;5.20;;;4.20;;
72335;SDS011;65062;48.446;8.834;2022-12-18T07:51:43;5.65;;;3.42;;
72335;SDS011;65062;48.446;8.834;2022-12-18T07:54:48;0.63;;;0.60;;
72335;SDS011;65062;48.446;8.834;2022-12-18T07:57:49;2.67;;;2.47;;
72335;SDS011;65062;48.446;8.834;2022-12-18T08:00:50;4.35;;;3.92;;
72335;SDS011;65062;48.446;8.834;2022-12-18T08:03:50;8.88;;;7.70;;
72335;SDS011;65062;48.446;8.834;2022-12-18T08:06:51;2.58;;;2.42;;
72335;SDS011;65062;48.446;8.834;2022-12-18T08:09:51;1.65;;;1.48;;
72335;SDS011;65062;48.446;8.834;2022-12-18T08:12:51;4.13;;;3.72;;
72335;SDS011;65062;48.446;8.834;2022-12-18T08:15:59;2.67;;;2.47;;
72335;SDS011;65062;48.446;8.834;2022-12-18T08:19:00;3.03;;;2.38;;
72335;SDS011;65062;48.446;8.834;2022-12-18T08:22:01;5.00;;;4.55;;
72335;SDS011;65062;48.446;8.834;2022-12-18T08:25:02;3.78;;;2.92;;
72335;SDS011;65062;48.446;8.834;2022-12-18T08:28:03;8.50;;;6.30;;
72335;SDS011;65062;48.446;8.834;2022-12-18T08:31:04;8.27;;;4.18;;
72335;SDS011;65062;48.446;8.834;2022-12-18T08:34:04;9.02;;;5.60;;
72335;SDS011;65062;48.446;8.834;2022-12-18T08:37:05;7.63;;;5.03;;
72335;SDS011;65062;48.446;8.834;2022-12-18T08:40:06;17.25;;;6.78;;
72335;SDS011;65062;48.446;8.834;2022-12-18T08:43:07;17.45;;;5.97;;
72335;SDS011;65062;48.446;8.834;2022-12-18T08:46:31;3.70;;;2.47;;
72335;SDS011;65062;48.446;8.834;2022-12-18T08:49:40;7.53;;;6.88;;
72335;SDS011;65062;48.446;8.834;2022-12-18T08:52:40;3.03;;;2.75;;
72335;SDS011;65062;48.446;8.834;2022-12-18T08:55:41;3.35;;;2.60;;
72335;SDS011;65062;48.446;8.834;2022-12-18T08:58:41;13.75;;;5.00;;
72335;SDS011;65062;48.446;8.834;2022-12-18T09:01:42;11.45;;;4.40;;
72335;SDS011;65062;48.446;8.834;2022-12-18T09:04:43;2.20;;;2.08;;
72335;SDS011;65062;48.446;8.834;2022-12-18T09:07:43;11.05;;;10.00;;
72335;SDS011;65062;48.446;8.834;2022-12-18T09:10:44;1.92;;;1.83;;
72335;SDS011;65062;48.446;8.834;2022-12-18T09:13:45;4.80;;;3.85;;
72335;SDS011;65062;48.446;8.834;2022-12-18T09:16:46;6.93;;;6.22;;
72335;SDS011;65062;48.446;8.834;2022-12-18T09:19:46;5.57;;;5.00;;
72335;SDS011;65062;48.446;8.834;2022-12-18T09:22:46;7.28;;;6.57;;
72335;SDS011;65062;48.446;8.834;2022-12-18T09:25:47;1.45;;;1.35;;
72335;SDS011;65062;48.446;8.834;2022-12-18T09:28:48;4.43;;;4.07;;
72335;SDS011;65062;48.446;8.834;2022-12-18T09:31:49;4.25;;;2.35;;
72335;SDS011;65062;48.446;8.834;2022-12-18T09:34:49;11.35;;;4.22;;
72335;SDS011;65062;48.446;8.834;2022-12-18T09:37:49;16.25;;;7.32;;
72335;SDS011;65062;48.446;8.834;2022-12-18T09:40:51;9.73;;;5.80;;
72335;SDS011;65062;48.446;8.834;2022-12-18T09:43:55;8.57;;;4.38;;
72335;SDS011;65062;48.446;8.834;2022-12-18T09:50:23;16.27;;;8.38;;
72335;SDS011;65062;48.446;8.834;2022-12-18T09:53:30;4.97;;;3.53;;
72335;SDS011;65062;48.446;8.834;2022-12-18T09:56:35;7.63;;;4.65;;
72335;SDS011;65062;48.446;8.834;2022-12-18T09:59:40;9.95;;;5.13;;
72335;SDS011;65062;48.446;8.834;2022-12-18T10:02:43;4.43;;;3.13;;
72335;SDS011;65062;48.446;8.834;2022-12-18T10:12:32;4.57;;;4.30;;
72335;SDS011;65062;48.446;8.834;2022-12-18T10:15:50;6.70;;;5.82;;
72335;SDS011;65062;48.446;8.834;2022-12-18T10:19:04;7.72;;;6.72;;
72335;SDS011;65062;48.446;8.834;2022-12-18T10:22:23;11.35;;;5.05;;
72335;SDS011;65062;48.446;8.834;2022-12-18T10:29:12;8.80;;;6.03;;
72335;SDS011;65062;48.446;8.834;2022-12-18T10:32:15;9.10;;;3.97;;
72335;SDS011;65062;48.446;8.834;2022-12-18T10:35:19;15.93;;;7.45;;
72335;SDS011;65062;48.446;8.834;2022-12-18T10:38:22;12.35;;;7.40;;
72335;SDS011;65062;48.446;8.834;2022-12-18T10:41:26;7.97;;;6.20;;
72335;SDS011;65062;48.446;8.834;2022-12-18T10:44:27;21.20;;;8.48;;
72335;SDS011;65062;48.446;8.834;2022-12-18T10:47:27;24.67;;;9.50;;
72335;SDS011;65062;48.446;8.834;2022-12-18T10:50:29;10.05;;;5.82;;
72335;SDS011;65062;48.446;8.834;2022-12-18T10:53:32;13.55;;;7.35;;
72335;SDS011;65062;48.446;8.834;2022-12-18T10:56:35;28.05;;;11.55;;
72335;SDS011;65062;48.446;8.834;2022-12-18T10:59:49;17.70;;;8.68;;
72335;SDS011;65062;48.446;8.834;2022-12-18T11:02:51;15.63;;;9.02;;
72335;SDS011;65062;48.446;8.834;2022-12-18T11:06:01;16.05;;;9.90;;
72335;SDS011;65062;48.446;8.834;2022-12-18T11:09:03;17.63;;;8.27;;
72335;SDS011;65062;48.446;8.834;2022-12-18T11:12:19;26.45;;;12.18;;
72335;SDS011;65062;48.446;8.834;2022-12-18T11:15:26;24.27;;;12.85;;
72335;SDS011;65062;48.446;8.834;2022-12-18T11:18:33;23.13;;;12.73;;
72335;SDS011;65062;48.446;8.834;2022-12-18T11:21:38;28.02;;;14.73;;
72335;SDS011;65062;48.446;8.834;2022-12-18T11:24:41;29.38;;;15.85;;
72335;SDS011;65062;48.446;8.834;2022-12-18T11:27:41;32.63;;;17.65;;
72335;SDS011;65062;48.446;8.834;2022-12-18T11:36:52;29.20;;;15.93;;
72335;SDS011;65062;48.446;8.834;2022-12-18T11:40:14;29.00;;;16.80;;
72335;SDS011;65062;48.446;8.834;2022-12-18T11:43:21;30.15;;;17.42;;
72335;SDS011;65062;48.446;8.834;2022-12-18T11:46:36;30.98;;;17.25;;
72335;SDS011;65062;48.446;8.834;2022-12-18T11:49:46;31.45;;;17.30;;
72335;SDS011;65062;48.446;8.834;2022-12-18T11:52:49;31.90;;;17.83;;
72335;SDS011;65062;48.446;8.834;2022-12-18T12:09:07;31.55;;;16.58;;
72335;SDS011;65062;48.446;8.834;2022-12-18T12:12:25;29.40;;;16.42;;
72335;SDS011;65062;48.446;8.834;2022-12-18T12:16:46;29.70;;;15.50;;
72335;SDS011;65062;48.446;8.834;2022-12-18T12:19:23;31.40;;;15.93;;
72335;SDS011;65062;48.446;8.834;2022-12-18T12:25:50;27.33;;;15.90;;
72335;SDS011;65062;48.446;8.834;2022-12-18T12:29:04;29.08;;;14.80;;
72335;SDS011;65062;48.446;8.834;2022-12-18T12:39:23;31.67;;;15.65;;
72335;SDS011;65062;48.446;8.834;2022-12-18T12:42:40;29.05;;;15.80;;
72335;SDS011;65062;48.446;8.834;2022-12-18T12:46:04;29.50;;;15.02;;
72335;SDS011;65062;48.446;8.834;2022-12-18T12:49:17;28.92;;;14.73;;
72335;SDS011;65062;48.446;8.834;2022-12-18T12:55:37;32.28;;;16.48;;
72335;SDS011;65062;48.446;8.834;2022-12-18T13:02:02;26.83;;;14.50;;
72335;SDS011;65062;48.446;8.834;2022-12-18T13:08:31;30.17;;;15.85;;
72335;SDS011;65062;48.446;8.834;2022-12-18T13:11:50;34.03;;;17.58;;
72335;SDS011;65062;48.446;8.834;2022-12-18T13:18:34;32.40;;;16.55;;
72335;SDS011;65062;48.446;8.834;2022-12-18T13:21:35;33.08;;;16.00;;
72335;SDS011;65062;48.446;8.834;2022-12-18T13:24:35;30.88;;;15.05;;
72335;SDS011;65062;48.446;8.834;2022-12-18T13:33:48;28.30;;;14.98;;
72335;SDS011;65062;48.446;8.834;2022-12-18T13:36:49;33.33;;;15.65;;
72335;SDS011;65062;48.446;8.834;2022-12-18T13:39:50;34.08;;;17.77;;
72335;SDS011;65062;48.446;8.834;2022-12-18T13:42:50;33.95;;;16.17;;
72335;SDS011;65062;48.446;8.834;2022-12-18T13:46:19;34.92;;;15.73;;
72335;SDS011;65062;48.446;8.834;2022-12-18T13:49:53;36.40;;;17.88;;
72335;SDS011;65062;48.446;8.834;2022-12-18T13:52:47;34.80;;;17.20;;
72335;SDS011;65062;48.446;8.834;2022-12-18T13:55:47;35.08;;;16.95;;
72335;SDS011;65062;48.446;8.834;2022-12-18T14:05:22;30.45;;;13.52;;
72335;SDS011;65062;48.446;8.834;2022-12-18T14:08:27;32.45;;;15.25;;
72335;SDS011;65062;48.446;8.834;2022-12-18T14:11:33;29.55;;;14.07;;
72335;SDS011;65062;48.446;8.834;2022-12-18T14:14:33;33.63;;;15.23;;
72335;SDS011;65062;48.446;8.834;2022-12-18T14:17:34;34.85;;;15.40;;
72335;SDS011;65062;48.446;8.834;2022-12-18T14:20:36;40.20;;;16.00;;
72335;SDS011;65062;48.446;8.834;2022-12-18T14:23:41;26.98;;;13.38;;
72335;SDS011;65062;48.446;8.834;2022-12-18T14:26:42;31.02;;;14.73;;
72335;SDS011;65062;48.446;8.834;2022-12-18T14:29:43;33.10;;;15.68;;
72335;SDS011;65062;48.446;8.834;2022-12-18T14:32:44;29.95;;;13.93;;
72335;SDS011;65062;48.446;8.834;2022-12-18T14:36:25;30.08;;;13.63;;
72335;SDS011;65062;48.446;8.834;2022-12-18T14:39:27;29.38;;;13.30;;
72335;SDS011;65062;48.446;8.834;2022-12-18T14:42:27;30.60;;;13.63;;
72335;SDS011;65062;48.446;8.834;2022-12-18T14:45:32;32.30;;;14.98;;
72335;SDS011;65062;48.446;8.834;2022-12-18T14:48:39;30.67;;;13.55;;
72335;SDS011;65062;48.446;8.834;2022-12-18T14:51:41;33.97;;;13.63;;
72335;SDS011;65062;48.446;8.834;2022-12-18T14:54:48;31.45;;;15.43;;
72335;SDS011;65062;48.446;8.834;2022-12-18T14:57:52;27.48;;;12.73;;
72335;SDS011;65062;48.446;8.834;2022-12-18T15:00:54;33.70;;;13.15;;
72335;SDS011;65062;48.446;8.834;2022-12-18T15:03:55;29.63;;;12.90;;
72335;SDS011;65062;48.446;8.834;2022-12-18T15:07:38;25.77;;;10.95;;
72335;SDS011;65062;48.446;8.834;2022-12-18T15:13:26;31.05;;;14.00;;
72335;SDS011;65062;48.446;8.834;2022-12-18T15:16:26;32.45;;;11.93;;
72335;SDS011;65062;48.446;8.834;2022-12-18T15:19:48;26.88;;;11.05;;
72335;SDS011;65062;48.446;8.834;2022-12-18T15:22:48;26.35;;;13.02;;
72335;SDS011;65062;48.446;8.834;2022-12-18T15:25:54;25.30;;;10.90;;
72335;SDS011;65062;48.446;8.834;2022-12-18T15:28:56;25.08;;;10.48;;
72335;SDS011;65062;48.446;8.834;2022-12-18T15:32:10;27.50;;;12.32;;
72335;SDS011;65062;48.446;8.834;2022-12-18T15:35:23;31.70;;;12.55;;
72335;SDS011;65062;48.446;8.834;2022-12-18T15:38:24;28.95;;;12.65;;
72335;SDS011;65062;48.446;8.834;2022-12-18T15:41:25;27.83;;;13.68;;
72335;SDS011;65062;48.446;8.834;2022-12-18T15:44:26;33.55;;;14.30;;
72335;SDS011;65062;48.446;8.834;2022-12-18T15:47:27;28.83;;;13.70;;
72335;SDS011;65062;48.446;8.834;2022-12-18T15:50:28;33.47;;;15.38;;
72335;SDS011;65062;48.446;8.834;2022-12-18T15:53:29;31.83;;;15.45;;
72335;SDS011;65062;48.446;8.834;2022-12-18T15:56:32;32.85;;;13.98;;
72335;SDS011;65062;48.446;8.834;2022-12-18T15:59:52;28.30;;;13.57;;
72335;SDS011;65062;48.446;8.834;2022-12-18T16:02:55;23.48;;;11.25;;
72335;SDS011;65062;48.446;8.834;2022-12-18T16:05:56;29.25;;;10.68;;
72335;SDS011;65062;48.446;8.834;2022-12-18T16:12:01;21.47;;;10.73;;
72335;SDS011;65062;48.446;8.834;2022-12-18T16:15:02;23.65;;;9.63;;
72335;SDS011;65062;48.446;8.834;2022-12-18T16:18:04;23.65;;;11.15;;
72335;SDS011;65062;48.446;8.834;2022-12-18T16:21:04;21.40;;;9.80;;
72335;SDS011;65062;48.446;8.834;2022-12-18T16:24:05;29.88;;;10.52;;
72335;SDS011;65062;48.446;8.834;2022-12-18T16:27:05;29.98;;;12.75;;
72335;SDS011;65062;48.446;8.834;2022-12-18T16:30:11;23.92;;;11.10;;
72335;SDS011;65062;48.446;8.834;2022-12-18T16:33:15;27.20;;;11.98;;
72335;SDS011;65062;48.446;8.834;2022-12-18T16:36:16;27.98;;;12.65;;
72335;SDS011;65062;48.446;8.834;2022-12-18T16:39:16;29.35;;;12.40;;
72335;SDS011;65062;48.446;8.834;2022-12-18T16:42:18;27.13;;;11.60;;
72335;SDS011;65062;48.446;8.834;2022-12-18T16:45:19;21.38;;;10.45;;
72335;SDS011;65062;48.446;8.834;2022-12-18T16:48:19;24.85;;;10.32;;
72335;SDS011;65062;48.446;8.834;2022-12-18T16:51:19;28.48;;;12.88;;
72335;SDS011;65062;48.446;8.834;2022-12-18T16:54:20;29.17;;;12.93;;
72335;SDS011;65062;48.446;8.834;2022-12-18T16:57:20;18.15;;;9.18;;
72335;SDS011;65062;48.446;8.834;2022-12-18T17:00:21;26.85;;;10.98;;
72335;SDS011;65062;48.446;8.834;2022-12-18T17:03:21;29.85;;;10.70;;
72335;SDS011;65062;48.446;8.834;2022-12-18T17:06:22;27.25;;;11.88;;
72335;SDS011;65062;48.446;8.834;2022-12-18T17:09:23;25.23;;;10.13;;
72335;SDS011;65062;48.446;8.834;2022-12-18T17:12:26;28.55;;;12.98;;
72335;SDS011;65062;48.446;8.834;2022-12-18T17:15:26;27.08;;;11.32;;
72335;SDS011;65062;48.446;8.834;2022-12-18T17:18:27;30.80;;;14.20;;
72335;SDS011;65062;48.446;8.834;2022-12-18T17:21:27;34.13;;;14.70;;
72335;SDS011;65062;48.446;8.834;2022-12-18T17:24:28;26.65;;;13.52;;
72335;SDS011;65062;48.446;8.834;2022-12-18T17:27:28;23.75;;;12.35;;
72335;SDS011;65062;48.446;8.834;2022-12-18T17:30:28;23.80;;;11.77;;
72335;SDS011;65062;48.446;8.834;2022-12-18T17:33:29;24.85;;;10.65;;
72335;SDS011;65062;48.446;8.834;2022-12-18T17:36:29;23.65;;;10.15;;
72335;SDS011;65062;48.446;8.834;2022-12-18T17:39:31;28.25;;;12.68;;
72335;SDS011;65062;48.446;8.834;2022-12-18T17:42:32;24.90;;;11.50;;
72335;SDS011;65062;48.446;8.834;2022-12-18T17:45:36;28.55;;;12.20;;
72335;SDS011;65062;48.446;8.834;2022-12-18T17:48:37;31.13;;;13.27;;
72335;SDS011;65062;48.446;8.834;2022-12-18T17:51:38;25.73;;;11.75;;
72335;SDS011;65062;48.446;8.834;2022-12-18T17:54:41;31.70;;;12.50;;
72335;SDS011;65062;48.446;8.834;2022-12-18T17:57:42;34.70;;;15.10;;
72335;SDS011;65062;48.446;8.834;2022-12-18T18:00:43;28.67;;;14.90;;
72335;SDS011;65062;48.446;8.834;2022-12-18T18:03:43;28.17;;;13.93;;
72335;SDS011;65062;48.446;8.834;2022-12-18T18:06:44;30.27;;;12.98;;
72335;SDS011;65062;48.446;8.834;2022-12-18T18:09:44;26.88;;;14.27;;
72335;SDS011;65062;48.446;8.834;2022-12-18T18:12:45;27.33;;;13.27;;
72335;SDS011;65062;48.446;8.834;2022-12-18T18:16:04;20.65;;;11.10;;
72335;SDS011;65062;48.446;8.834;2022-12-18T18:19:06;29.10;;;11.60;;
72335;SDS011;65062;48.446;8.834;2022-12-18T18:22:08;27.15;;;12.75;;
72335;SDS011;65062;48.446;8.834;2022-12-18T18:25:09;32.42;;;15.27;;
72335;SDS011;65062;48.446;8.834;2022-12-18T18:28:10;26.80;;;12.95;;
72335;SDS011;65062;48.446;8.834;2022-12-18T18:31:10;33.03;;;15.98;;
72335;SDS011;65062;48.446;8.834;2022-12-18T18:34:15;31.50;;;15.30;;
72335;SDS011;65062;48.446;8.834;2022-12-18T18:37:23;36.33;;;15.82;;
72335;SDS011;65062;48.446;8.834;2022-12-18T18:40:24;40.30;;;18.17;;
72335;SDS011;65062;48.446;8.834;2022-12-18T18:43:24;36.20;;;17.63;;
72335;SDS011;65062;48.446;8.834;2022-12-18T18:46:24;36.15;;;16.83;;
72335;SDS011;65062;48.446;8.834;2022-12-18T18:49:25;38.00;;;18.38;;
72335;SDS011;65062;48.446;8.834;2022-12-18T18:52:27;40.90;;;17.73;;
72335;SDS011;65062;48.446;8.834;2022-12-18T18:55:27;30.58;;;14.98;;
72335;SDS011;65062;48.446;8.834;2022-12-18T18:58:28;34.53;;;15.90;;
72335;SDS011;65062;48.446;8.834;2022-12-18T19:01:29;35.75;;;17.25;;
72335;SDS011;65062;48.446;8.834;2022-12-18T19:04:29;38.55;;;17.10;;
72335;SDS011;65062;48.446;8.834;2022-12-18T19:07:30;44.47;;;18.45;;
72335;SDS011;65062;48.446;8.834;2022-12-18T19:10:30;38.88;;;17.17;;
72335;SDS011;65062;48.446;8.834;2022-12-18T19:13:31;32.92;;;14.75;;
72335;SDS011;65062;48.446;8.834;2022-12-18T19:16:33;35.55;;;15.80;;
72335;SDS011;65062;48.446;8.834;2022-12-18T19:19:34;40.28;;;20.52;;
72335;SDS011;65062;48.446;8.834;2022-12-18T19:22:34;69.43;;;27.35;;
72335;SDS011;65062;48.446;8.834;2022-12-18T19:25:38;55.13;;;24.05;;
72335;SDS011;65062;48.446;8.834;2022-12-18T19:28:39;46.55;;;22.42;;
72335;SDS011;65062;48.446;8.834;2022-12-18T19:31:39;52.10;;;21.05;;
72335;SDS011;65062;48.446;8.834;2022-12-18T19:34:40;35.85;;;16.30;;
72335;SDS011;65062;48.446;8.834;2022-12-18T19:37:40;44.90;;;18.45;;
72335;SDS011;65062;48.446;8.834;2022-12-18T19:40:41;40.72;;;17.75;;
72335;SDS011;65062;48.446;8.834;2022-12-18T19:43:43;35.47;;;17.17;;
72335;SDS011;65062;48.446;8.834;2022-12-18T19:46:44;36.58;;;16.67;;
72335;SDS011;65062;48.446;8.834;2022-12-18T19:49:45;40.67;;;18.60;;
72335;SDS011;65062;48.446;8.834;2022-12-18T19:52:45;45.47;;;19.23;;
72335;SDS011;65062;48.446;8.834;2022-12-18T19:55:46;40.00;;;17.30;;
72335;SDS011;65062;48.446;8.834;2022-12-18T19:58:46;46.42;;;18.98;;
72335;SDS011;65062;48.446;8.834;2022-12-18T20:01:47;40.22;;;18.13;;
72335;SDS011;65062;48.446;8.834;2022-12-18T20:04:49;41.08;;;19.27;;
72335;SDS011;65062;48.446;8.834;2022-12-18T20:07:49;37.33;;;17.10;;